createdAt,value
2022-12-09T00:02:12.225Z,13.23
2022-12-09T00:04:39.658Z,14.93
2022-12-09T00:07:06.712Z,12.90
2022-12-09T00:09:33.579Z,14.57
2022-12-09T00:12:00.409Z,15.33
2022-12-09T00:14:29.071Z,16.37
2022-12-09T00:16:56.148Z,12.93
2022-12-09T00:19:23.026Z,14.90
2022-12-09T00:21:49.923Z,16.90
2022-12-09T00:24:16.784Z,17.40
2022-12-09T00:26:43.907Z,16.03
2022-12-09T00:29:11.331Z,20.20
2022-12-09T00:31:40.450Z,18.13
2022-12-09T00:34:10.911Z,18.33
2022-12-09T00:36:37.882Z,16.47
2022-12-09T00:39:04.889Z,17.73
2022-12-09T00:41:32.041Z,19.63
2022-12-09T00:43:59.371Z,18.30
2022-12-09T00:46:26.593Z,17.47
2022-12-09T00:48:54.893Z,16.47
2022-12-09T00:51:24.219Z,17.00
2022-12-09T00:53:55.952Z,16.40
2022-12-09T00:56:24.268Z,14.93
2022-12-09T00:58:51.119Z,16.70
2022-12-09T01:01:18.099Z,16.90
2022-12-09T01:03:45.453Z,14.50
2022-12-09T01:06:17.601Z,16.23
2022-12-09T01:08:45.864Z,15.27
2022-12-09T01:11:16.566Z,17.87
2022-12-09T01:13:43.836Z,13.13
2022-12-09T01:16:15.652Z,14.40
2022-12-09T01:18:42.817Z,14.57
2022-12-09T01:21:09.731Z,16.27
2022-12-09T01:23:38.369Z,14.33
2022-12-09T01:26:06.619Z,16.87
2022-12-09T01:28:34.784Z,14.80
2022-12-09T01:31:06.317Z,15.63
2022-12-09T01:33:33.588Z,14.60
2022-12-09T01:36:00.376Z,15.53
2022-12-09T01:38:27.206Z,16.67
2022-12-09T01:40:55.750Z,15.00
2022-12-09T01:43:22.697Z,19.77
2022-12-09T01:45:50.104Z,14.10
2022-12-09T01:48:20.547Z,15.37
2022-12-09T01:50:52.072Z,15.83
2022-12-09T01:53:21.887Z,16.63
2022-12-09T01:55:50.194Z,19.87
2022-12-09T01:58:19.823Z,13.90
2022-12-09T02:00:48.143Z,13.10
2022-12-09T02:03:15.555Z,13.07
2022-12-09T02:05:43.929Z,13.33
2022-12-09T02:08:13.244Z,16.70
2022-12-09T02:10:48.145Z,15.60
2022-12-09T02:13:26.893Z,14.27
2022-12-09T02:15:57.161Z,16.33
2022-12-09T02:18:29.337Z,20.33
2022-12-09T02:21:01.192Z,15.33
2022-12-09T02:23:35.688Z,14.27
2022-12-09T02:26:11.372Z,14.47
2022-12-09T02:29:05.675Z,13.37
2022-12-09T02:31:53.345Z,14.13
2022-12-09T02:34:22.831Z,14.83
2022-12-09T02:37:03.904Z,12.33
2022-12-09T02:39:36.774Z,16.57
2022-12-09T02:42:06.250Z,17.77
2022-12-09T02:44:33.996Z,14.53
2022-12-09T02:47:01.725Z,19.97
2022-12-09T02:49:32.093Z,14.83
2022-12-09T02:51:59.989Z,16.57
2022-12-09T02:54:29.410Z,16.87
2022-12-09T02:57:00.816Z,16.87
2022-12-09T02:59:27.828Z,16.23
2022-12-09T03:02:03.404Z,17.83
2022-12-09T03:04:32.449Z,17.20
2022-12-09T03:07:09.926Z,14.73
2022-12-09T03:09:40.782Z,18.17
2022-12-09T03:12:10.937Z,17.77
2022-12-09T03:14:41.911Z,17.30
2022-12-09T03:17:14.083Z,17.47
2022-12-09T03:19:46.223Z,15.20
2022-12-09T03:22:16.758Z,18.57
2022-12-09T03:24:49.860Z,18.03
2022-12-09T03:27:22.492Z,18.63
2022-12-09T03:29:51.000Z,15.00
2022-12-09T03:32:20.795Z,14.80
2022-12-09T03:34:52.158Z,15.30
2022-12-09T03:37:21.188Z,16.90
2022-12-09T03:39:49.507Z,15.93
2022-12-09T03:42:19.827Z,15.47
2022-12-09T03:44:51.106Z,15.33
2022-12-09T03:47:18.095Z,12.93
2022-12-09T03:49:45.307Z,12.93
2022-12-09T03:52:19.491Z,13.87
2022-12-09T03:54:49.716Z,15.60
2022-12-09T03:57:19.950Z,18.50
2022-12-09T03:59:51.574Z,13.73
2022-12-09T04:02:18.898Z,13.93
2022-12-09T04:04:46.005Z,15.40
2022-12-09T04:07:14.751Z,13.77
2022-12-09T04:09:42.130Z,13.13
2022-12-09T04:12:09.459Z,13.13
2022-12-09T04:14:36.613Z,13.63
2022-12-09T04:17:04.130Z,13.30
2022-12-09T04:19:31.357Z,15.07
2022-12-09T04:21:58.300Z,12.23
2022-12-09T04:24:26.814Z,16.87
2022-12-09T04:26:53.807Z,15.20
2022-12-09T04:29:20.655Z,15.00
2022-12-09T04:31:47.956Z,12.30
2022-12-09T04:34:15.006Z,12.70
2022-12-09T04:36:41.913Z,17.97
2022-12-09T04:39:08.958Z,13.00
2022-12-09T04:41:37.528Z,13.87
2022-12-09T04:44:05.635Z,14.20
2022-12-09T04:46:33.211Z,14.60
2022-12-09T04:49:00.566Z,16.00
2022-12-09T04:51:28.058Z,14.43
2022-12-09T04:53:55.389Z,13.47
2022-12-09T04:56:22.404Z,11.87
2022-12-09T04:58:51.088Z,14.00
2022-12-09T05:01:28.248Z,14.37
2022-12-09T05:03:57.785Z,13.30
2022-12-09T05:06:25.223Z,15.57
2022-12-09T05:08:52.732Z,15.67
2022-12-09T05:11:21.062Z,16.60
2022-12-09T05:13:50.312Z,21.27
2022-12-09T05:16:18.466Z,16.93
2022-12-09T05:18:47.240Z,16.30
2022-12-09T05:21:16.606Z,18.67
2022-12-09T05:23:44.422Z,17.30
2022-12-09T05:26:13.246Z,16.60
2022-12-09T05:28:40.966Z,19.70
2022-12-09T05:31:14.994Z,20.30
2022-12-09T05:33:42.426Z,21.20
2022-12-09T05:36:10.624Z,17.23
2022-12-09T05:38:37.727Z,19.07
2022-12-09T05:41:05.265Z,18.57
2022-12-09T05:43:32.868Z,21.33
2022-12-09T05:46:01.081Z,20.37
2022-12-09T05:48:30.362Z,23.87
2022-12-09T05:50:58.255Z,17.53
2022-12-09T05:53:25.352Z,19.07
2022-12-09T05:55:52.709Z,19.53
2022-12-09T05:58:20.043Z,18.67
2022-12-09T06:00:47.215Z,20.63
2022-12-09T06:03:14.888Z,19.83
2022-12-09T06:05:44.258Z,21.17
2022-12-09T06:08:11.379Z,20.93
2022-12-09T06:10:40.517Z,23.47
2022-12-09T06:13:07.870Z,19.53
2022-12-09T06:15:35.319Z,21.17
2022-12-09T06:18:02.951Z,23.00
2022-12-09T06:20:30.593Z,23.30
2022-12-09T06:22:58.926Z,21.00
2022-12-09T06:25:26.168Z,28.63
2022-12-09T06:27:54.059Z,25.03
2022-12-09T06:30:21.591Z,23.77
2022-12-09T06:32:49.025Z,23.57
2022-12-09T06:35:16.964Z,22.57
2022-12-09T06:37:44.243Z,23.63
2022-12-09T06:40:13.137Z,26.17
2022-12-09T06:42:40.168Z,26.73
2022-12-09T06:45:08.525Z,24.83
2022-12-09T06:47:36.075Z,24.33
2022-12-09T06:50:07.045Z,25.23
2022-12-09T06:52:35.186Z,30.20
2022-12-09T06:55:02.250Z,25.47
2022-12-09T06:57:30.670Z,28.50
2022-12-09T06:59:57.618Z,25.40
2022-12-09T07:02:25.789Z,23.80
2022-12-09T07:04:55.216Z,32.50
2022-12-09T07:07:23.318Z,28.00
2022-12-09T07:09:50.552Z,29.77
2022-12-09T07:12:18.477Z,26.23
2022-12-09T07:14:47.437Z,28.93
2022-12-09T07:17:16.715Z,32.20
2022-12-09T07:19:44.076Z,30.97
2022-12-09T07:22:12.077Z,35.03
2022-12-09T07:24:39.996Z,30.83
2022-12-09T07:27:11.971Z,28.87
2022-12-09T07:29:41.394Z,29.70
2022-12-09T07:32:10.835Z,30.60
2022-12-09T07:34:38.287Z,27.70
2022-12-09T07:37:05.863Z,25.97
2022-12-09T07:39:32.994Z,29.20
2022-12-09T07:42:00.239Z,25.83
2022-12-09T07:44:28.291Z,25.30
2022-12-09T07:46:56.026Z,27.83
2022-12-09T07:49:25.739Z,28.97
2022-12-09T07:51:53.003Z,29.60
2022-12-09T07:54:21.238Z,28.03
2022-12-09T07:56:48.802Z,30.87
2022-12-09T07:59:16.962Z,29.70
2022-12-09T08:01:44.819Z,34.83
2022-12-09T08:04:13.186Z,30.57
2022-12-09T08:06:41.869Z,27.27
2022-12-09T08:09:12.565Z,31.00
2022-12-09T08:11:40.328Z,28.87
2022-12-09T08:14:12.572Z,29.33
2022-12-09T08:16:40.925Z,30.27
2022-12-09T08:19:09.618Z,29.93
2022-12-09T08:21:37.726Z,29.27
2022-12-09T08:24:07.752Z,26.73
2022-12-09T08:26:37.517Z,30.23
2022-12-09T08:29:08.255Z,28.33
2022-12-09T08:31:40.535Z,28.37
2022-12-09T08:34:09.252Z,34.07
2022-12-09T08:36:37.100Z,22.93
2022-12-09T08:39:06.254Z,33.67
2022-12-09T08:41:38.473Z,30.00
2022-12-09T08:44:08.030Z,24.90
2022-12-09T08:46:37.111Z,24.67
2022-12-09T08:49:05.253Z,26.23
2022-12-09T08:51:33.279Z,23.93
2022-12-09T08:54:01.484Z,24.50
2022-12-09T08:56:30.076Z,24.03
2022-12-09T08:58:57.402Z,25.23
2022-12-09T09:01:27.025Z,24.27
2022-12-09T09:03:54.702Z,21.53
2022-12-09T09:06:22.173Z,24.73
2022-12-09T09:08:49.696Z,21.27
2022-12-09T09:11:20.623Z,21.43
2022-12-09T09:13:53.169Z,22.67
2022-12-09T09:16:22.671Z,21.37
2022-12-09T09:18:50.681Z,22.50
2022-12-09T09:21:20.369Z,20.00
2022-12-09T09:23:48.735Z,17.83
2022-12-09T09:26:17.880Z,18.90
2022-12-09T09:28:45.854Z,19.27
2022-12-09T09:31:17.561Z,20.10
2022-12-09T09:33:45.527Z,17.53
2022-12-09T09:36:15.669Z,17.70
2022-12-09T09:38:43.195Z,19.63
2022-12-09T09:41:20.467Z,19.23
2022-12-09T09:43:48.526Z,18.80
2022-12-09T09:46:24.568Z,18.17
2022-12-09T09:48:53.298Z,17.90
2022-12-09T09:51:21.937Z,17.43
2022-12-09T09:53:51.187Z,17.17
2022-12-09T09:56:26.891Z,16.53
2022-12-09T09:59:02.121Z,15.73
2022-12-09T10:01:35.009Z,17.67
2022-12-09T10:04:13.138Z,16.37
2022-12-09T10:06:47.708Z,21.97
2022-12-09T10:09:21.847Z,17.63
2022-12-09T10:12:02.027Z,19.73
2022-12-09T10:14:40.015Z,18.60
2022-12-09T10:17:21.477Z,17.23
2022-12-09T10:19:51.278Z,17.63
2022-12-09T10:22:23.055Z,20.97
2022-12-09T10:24:52.496Z,18.00
2022-12-09T10:27:29.795Z,17.80
2022-12-09T10:30:00.006Z,16.80
2022-12-09T10:32:30.915Z,19.63
2022-12-09T10:34:59.248Z,19.20
2022-12-09T10:37:29.919Z,18.30
2022-12-09T10:40:16.534Z,17.23
2022-12-09T10:43:05.646Z,17.40
2022-12-09T10:46:00.043Z,14.03
2022-12-09T10:48:33.164Z,17.90
2022-12-09T10:51:04.467Z,13.80
2022-12-09T10:53:33.877Z,13.70
2022-12-09T10:56:02.722Z,16.13
2022-12-09T10:58:31.812Z,13.50
2022-12-09T11:01:02.955Z,11.27
2022-12-09T11:03:34.643Z,16.50
2022-12-09T11:06:18.536Z,15.30
2022-12-09T11:08:52.519Z,13.67
2022-12-09T11:11:19.896Z,15.27
2022-12-09T11:13:47.657Z,13.27
2022-12-09T11:16:15.080Z,14.43
2022-12-09T11:18:46.525Z,16.30
2022-12-09T11:21:32.782Z,14.03
2022-12-09T11:24:03.649Z,13.83
2022-12-09T11:26:38.475Z,42.10
2022-12-09T11:29:14.083Z,16.33
2022-12-09T11:31:42.237Z,14.10
2022-12-09T11:34:20.805Z,13.50
2022-12-09T11:36:51.422Z,14.83
2022-12-09T11:39:25.769Z,14.90
2022-12-09T11:42:17.138Z,14.40
2022-12-09T11:44:53.920Z,14.53
2022-12-09T11:47:26.480Z,16.23
2022-12-09T11:49:57.346Z,12.47
2022-12-09T11:52:29.334Z,14.97
2022-12-09T11:55:19.984Z,12.37
2022-12-09T11:57:50.626Z,15.47
2022-12-09T12:00:20.501Z,11.83
2022-12-09T12:02:53.084Z,12.87
2022-12-09T12:05:26.621Z,9.33
2022-12-09T12:08:06.611Z,13.90
2022-12-09T12:10:37.176Z,12.10
2022-12-09T12:13:12.002Z,10.47
2022-12-09T12:15:48.336Z,12.40
2022-12-09T12:18:19.769Z,11.70
2022-12-09T12:21:19.008Z,10.83
2022-12-09T12:24:24.769Z,9.97
2022-12-09T12:27:03.768Z,12.87
2022-12-09T12:29:47.464Z,12.13
2022-12-09T12:33:08.815Z,11.30
2022-12-09T12:35:51.902Z,9.40
2022-12-09T12:38:27.053Z,10.40
2022-12-09T12:41:10.270Z,9.80
2022-12-09T12:44:11.677Z,10.57
2022-12-09T12:46:52.819Z,7.77
2022-12-09T12:49:36.742Z,7.93
2022-12-09T12:52:39.422Z,8.03
2022-12-09T12:55:17.212Z,10.57
2022-12-09T12:57:51.352Z,11.00
2022-12-09T13:00:22.130Z,10.03
2022-12-09T13:03:00.841Z,10.13
2022-12-09T13:05:36.268Z,8.93
2022-12-09T13:08:06.314Z,10.93
2022-12-09T13:10:39.474Z,11.60
2022-12-09T13:13:14.587Z,12.43
2022-12-09T13:15:45.216Z,18.50
2022-12-09T13:18:16.127Z,11.73
2022-12-09T13:20:46.901Z,12.27
2022-12-09T13:23:27.839Z,12.50
2022-12-09T13:26:09.245Z,12.77
2022-12-09T13:28:47.221Z,10.00
2022-12-09T13:31:18.039Z,26.80
2022-12-09T13:33:56.099Z,10.33
2022-12-09T13:36:36.044Z,11.63
2022-12-09T13:39:03.833Z,11.50
2022-12-09T13:42:04.124Z,11.93
2022-12-09T13:44:34.574Z,11.43
2022-12-09T13:47:25.536Z,13.00
2022-12-09T13:49:56.977Z,11.93
2022-12-09T13:52:48.239Z,11.30
2022-12-09T13:55:37.716Z,13.77
2022-12-09T13:58:21.253Z,9.87
2022-12-09T14:01:06.668Z,9.43
2022-12-09T14:03:37.417Z,11.40
2022-12-09T14:06:17.163Z,9.23
2022-12-09T14:08:49.274Z,9.17
2022-12-09T14:11:42.833Z,10.80
2022-12-09T14:14:51.452Z,9.07
2022-12-09T14:17:58.125Z,12.00
2022-12-09T14:20:29.296Z,11.23
2022-12-09T14:23:19.241Z,16.27
2022-12-09T14:26:00.823Z,12.40
2022-12-09T14:28:49.837Z,10.80
2022-12-09T14:31:56.673Z,12.40
2022-12-09T14:34:32.248Z,12.07
2022-12-09T14:37:21.590Z,12.83
2022-12-09T14:39:53.738Z,12.23
2022-12-09T14:42:33.151Z,11.30
2022-12-09T14:45:13.251Z,13.30
2022-12-09T14:47:45.552Z,10.97
2022-12-09T14:50:16.380Z,13.10
2022-12-09T14:52:51.970Z,13.13
2022-12-09T14:55:23.062Z,13.13
2022-12-09T14:57:51.984Z,11.30
2022-12-09T15:00:31.373Z,11.83
2022-12-09T15:05:56.066Z,12.20
2022-12-09T15:08:34.550Z,11.73
2022-12-09T15:11:06.896Z,13.77
2022-12-09T15:13:35.365Z,11.80
2022-12-09T15:16:02.503Z,12.00
2022-12-09T15:18:31.677Z,13.03
2022-12-09T15:21:01.475Z,12.67
2022-12-09T15:23:31.899Z,12.45
2022-12-09T15:26:03.391Z,11.00
2022-12-09T15:28:32.040Z,12.23
2022-12-09T15:31:01.043Z,12.37
2022-12-09T15:33:31.870Z,9.73
2022-12-09T15:36:02.322Z,10.90
2022-12-09T15:38:40.921Z,13.27
2022-12-09T15:41:27.943Z,9.07
2022-12-09T15:43:59.812Z,10.73
2022-12-09T15:46:27.784Z,12.43
2022-12-09T15:48:59.922Z,12.33
2022-12-09T15:51:27.802Z,11.47
2022-12-09T15:53:57.454Z,9.83
2022-12-09T15:56:27.562Z,14.33
2022-12-09T15:58:58.111Z,12.23
2022-12-09T16:01:28.555Z,11.57
2022-12-09T16:03:58.744Z,10.13
2022-12-09T16:06:28.415Z,10.47
2022-12-09T16:08:55.360Z,11.17
2022-12-09T16:11:36.099Z,11.33
2022-12-09T16:14:03.244Z,11.83
2022-12-09T16:16:35.853Z,11.87
2022-12-09T16:19:04.387Z,11.17
2022-12-09T16:21:33.838Z,11.43
2022-12-09T16:24:10.092Z,11.10
2022-12-09T16:26:39.171Z,12.47
2022-12-09T16:29:14.086Z,12.63
2022-12-09T16:31:41.201Z,13.00
2022-12-09T16:34:20.575Z,11.23
2022-12-09T16:36:54.512Z,11.50
2022-12-09T16:39:34.745Z,12.47
2022-12-09T16:42:03.178Z,11.37
2022-12-09T16:44:34.172Z,14.23
2022-12-09T16:47:13.094Z,10.27
2022-12-09T16:49:45.292Z,11.50
2022-12-09T16:52:14.805Z,11.93
2022-12-09T16:54:43.253Z,12.40
2022-12-09T16:57:13.439Z,8.90
2022-12-09T16:59:40.722Z,11.63
2022-12-09T17:02:20.703Z,8.57
2022-12-09T17:04:50.638Z,9.47
2022-12-09T17:07:17.526Z,10.10
2022-12-09T17:09:44.344Z,9.90
2022-12-09T17:12:11.449Z,8.90
2022-12-09T17:14:38.426Z,9.03
2022-12-09T17:17:05.439Z,7.93
2022-12-09T17:19:32.512Z,8.10
2022-12-09T17:22:00.759Z,8.70
2022-12-09T17:24:27.672Z,8.87
2022-12-09T17:26:54.571Z,6.80
2022-12-09T17:29:21.527Z,8.33
2022-12-09T17:31:50.286Z,9.97
2022-12-09T17:34:17.227Z,9.93
2022-12-09T17:36:44.150Z,8.20
2022-12-09T17:39:12.890Z,8.73
2022-12-09T17:41:39.761Z,9.27
2022-12-09T17:44:06.907Z,11.63
2022-12-09T17:46:34.221Z,8.87
2022-12-09T17:49:02.378Z,8.97
2022-12-09T17:51:34.032Z,8.97
2022-12-09T17:54:03.080Z,9.70
2022-12-09T17:56:31.869Z,9.67
2022-12-09T17:59:00.909Z,9.23
2022-12-09T18:01:27.884Z,9.23
2022-12-09T18:04:02.587Z,9.37
2022-12-09T18:06:33.949Z,8.63
2022-12-09T18:09:01.350Z,8.37
2022-12-09T18:11:28.281Z,10.70
2022-12-09T18:13:56.548Z,10.87
2022-12-09T18:16:23.601Z,10.03
2022-12-09T18:18:50.594Z,9.00
2022-12-09T18:21:19.920Z,11.13
2022-12-09T18:23:48.093Z,9.43
2022-12-09T18:26:17.296Z,9.83
2022-12-09T18:28:44.519Z,8.43
2022-12-09T18:31:15.087Z,10.57
2022-12-09T18:33:42.350Z,10.83
2022-12-09T18:36:11.453Z,9.90
2022-12-09T18:38:39.076Z,10.43
2022-12-09T18:41:10.799Z,11.70
2022-12-09T18:43:41.300Z,10.93
2022-12-09T18:46:12.446Z,10.80
2022-12-09T18:48:40.937Z,10.57
2022-12-09T18:51:14.756Z,11.27
2022-12-09T18:53:41.642Z,13.80
2022-12-09T18:56:08.872Z,11.93
2022-12-09T18:59:04.855Z,11.30
2022-12-09T19:01:25.543Z,11.60
2022-12-09T19:03:56.050Z,12.20
2022-12-09T19:06:24.713Z,13.30
2022-12-09T19:08:55.529Z,11.67
2022-12-09T19:11:26.194Z,12.77
2022-12-09T19:13:54.018Z,11.97
2022-12-09T19:16:21.534Z,11.63
2022-12-09T19:18:48.734Z,13.23
2022-12-09T19:21:18.738Z,15.23
2022-12-09T19:23:47.145Z,13.10
2022-12-09T19:26:15.511Z,12.70
2022-12-09T19:28:46.617Z,13.80
2022-12-09T19:31:15.605Z,12.50
2022-12-09T19:33:42.684Z,10.37
2022-12-09T19:36:10.845Z,11.87
2022-12-09T19:38:39.651Z,13.50
2022-12-09T19:41:07.173Z,14.20
2022-12-09T19:43:34.455Z,37.20
2022-12-09T19:46:06.396Z,30.63
2022-12-09T19:48:35.776Z,17.30
2022-12-09T19:51:04.512Z,21.87
2022-12-09T19:53:31.936Z,17.00
2022-12-09T19:56:01.857Z,16.93
2022-12-09T19:58:29.539Z,18.67
2022-12-09T20:00:56.915Z,12.50
2022-12-09T20:03:24.194Z,16.50
2022-12-09T20:05:52.997Z,15.73
2022-12-09T20:08:20.429Z,17.60
2022-12-09T20:10:48.150Z,19.63
2022-12-09T20:13:16.585Z,15.37
2022-12-09T20:15:43.620Z,17.87
2022-12-09T20:18:11.063Z,16.67
2022-12-09T20:20:38.194Z,19.13
2022-12-09T20:23:05.253Z,16.93
2022-12-09T20:25:34.188Z,19.77
2022-12-09T20:28:01.031Z,20.30
2022-12-09T20:30:29.896Z,21.37
2022-12-09T20:32:57.063Z,17.23
2022-12-09T20:35:24.174Z,20.60
2022-12-09T20:37:51.150Z,17.00
2022-12-09T20:40:18.371Z,17.33
2022-12-09T20:42:45.284Z,15.47
2022-12-09T20:45:12.165Z,14.97
2022-12-09T20:47:40.369Z,14.40
2022-12-09T20:50:08.599Z,16.90
2022-12-09T20:52:35.681Z,17.53
2022-12-09T20:55:02.694Z,13.83
2022-12-09T20:57:29.608Z,15.47
2022-12-09T20:59:59.518Z,14.80
2022-12-09T21:02:26.437Z,12.53
2022-12-09T21:04:54.609Z,15.33
2022-12-09T21:07:21.726Z,13.77
2022-12-09T21:09:48.742Z,12.30
2022-12-09T21:12:15.737Z,15.67
2022-12-09T21:14:42.595Z,12.07
2022-12-09T21:17:09.460Z,15.10
2022-12-09T21:19:36.806Z,16.20
2022-12-09T21:22:05.406Z,16.37
2022-12-09T21:24:33.116Z,15.60
2022-12-09T21:27:00.931Z,13.37
2022-12-09T21:29:31.921Z,12.90
2022-12-09T21:32:00.405Z,11.80
2022-12-09T21:34:27.482Z,12.03
2022-12-09T21:36:54.395Z,13.37
2022-12-09T21:39:22.586Z,13.37
2022-12-09T21:41:49.485Z,13.87
2022-12-09T21:44:18.420Z,13.90
2022-12-09T21:46:46.030Z,13.07
2022-12-09T21:49:13.366Z,17.80
2022-12-09T21:51:40.580Z,13.33
2022-12-09T21:54:07.635Z,16.20
2022-12-09T21:56:36.729Z,15.17
2022-12-09T21:59:05.571Z,17.13
2022-12-09T22:01:34.398Z,16.88
2022-12-09T22:04:03.233Z,16.23
2022-12-09T22:06:31.058Z,20.00
2022-12-09T22:08:59.414Z,15.63
2022-12-09T22:11:28.767Z,16.30
2022-12-09T22:13:58.653Z,17.33
2022-12-09T22:16:28.587Z,17.63
2022-12-09T22:18:57.716Z,17.10
2022-12-09T22:21:27.430Z,17.93
2022-12-09T22:23:55.723Z,16.57
2022-12-09T22:26:23.800Z,18.43
2022-12-09T22:28:51.361Z,18.53
2022-12-09T22:31:21.771Z,15.40
2022-12-09T22:33:49.480Z,19.07
2022-12-09T22:36:16.928Z,19.90
2022-12-09T22:38:44.021Z,16.30
2022-12-09T22:41:13.389Z,21.30
2022-12-09T22:43:41.321Z,18.03
2022-12-09T22:46:09.904Z,20.57
2022-12-09T22:48:38.577Z,19.83
2022-12-09T22:51:07.151Z,16.97
2022-12-09T22:53:36.737Z,19.30
2022-12-09T22:56:04.201Z,19.77
2022-12-09T22:58:31.355Z,18.67
2022-12-09T23:00:58.152Z,19.17
2022-12-09T23:03:25.288Z,16.30
2022-12-09T23:05:54.427Z,17.27
2022-12-09T23:08:22.401Z,17.17
2022-12-09T23:10:49.377Z,17.47
2022-12-09T23:13:16.269Z,17.43
2022-12-09T23:15:43.141Z,18.23
2022-12-09T23:18:10.044Z,20.92
2022-12-09T23:20:36.923Z,19.13
2022-12-09T23:23:05.159Z,19.53
2022-12-09T23:25:33.779Z,18.50
2022-12-09T23:28:00.600Z,18.00
2022-12-09T23:30:27.485Z,17.43
2022-12-09T23:32:54.526Z,18.20
2022-12-09T23:35:21.377Z,19.23
2022-12-09T23:37:48.243Z,17.67
2022-12-09T23:40:16.532Z,19.07
2022-12-09T23:42:43.313Z,21.70
2022-12-09T23:45:10.805Z,18.13
2022-12-09T23:47:37.752Z,20.00
2022-12-09T23:50:05.452Z,18.87
2022-12-09T23:52:37.677Z,18.77
2022-12-09T23:55:04.978Z,20.40
2022-12-09T23:57:33.101Z,18.70
